Aérodrome :
LOGIN :

S'inscrire | Disclaimer

   EN    FR    IT 

 










Légende :    VFR   VFR Marginal   IFR   IFR Intensif   IFR Très Intensif
Visi : 
Plafond : 
>= 8 km
>= 3000ft
5 à 8 km
1000 à 3000 ft
1500m à 5 km
500 à 1000 ft
800 à 1500m
200 à 500 ft
< 800m
< 200 ft
Symboles :   Orages  Brouillard  Fortes neiges  Fortes précipitations  Vent > 20 kt
SIGMETs :   Divers  Orages  Givrage  Turbulence  Onde Orograph.  Cendres Volcan.






- Altitude de l'aérodrome : 220 ft
- Code IATA : CWL


EGFF - Cardiff Rhoose

DERNIER METAR :
  • 040750Z AUTO 05013KT 9999 FEW022 BKN027 OVC032 04/00 Q1016

METARs EXPIRÉS :
  • 040720Z AUTO 06013KT 9999 OVC028 04/M00 Q1016
  • 040650Z AUTO 06012KT 9999 OVC025 04/00 Q1016
  • 040620Z AUTO 06014KT 9999 OVC027 04/01 Q1016
  • 040550Z AUTO 06012KT 9999 BKN027 04/01 Q1016
  • 040520Z AUTO 06012KT 9999 OVC027 04/01 Q1016

TAF TAF EGFF
Valide du 04 à 06h jusqu'au 05 à 06h UTC


040502Z 0406/0506 06010KT 9999 SCT025
PROB30
TEMPO 0406/0410 05015G25KT
TEMPO 0407/0419 BKN014
PROB30
TEMPO 0409/0416 4000 -RADZ BKN009
ATIS : +44 1446 729 319



MET'MAP, la Météo Aéronautique d'un coup d'oeil ! - Copyright ORBIFLY Décembre 2007 - Disclaimer

ORBIFLY MET'MAP TEAM :

Programmation & Développement : Alexandra Zaïnal
Sur une idée originale de : Baudouin d'Aumeries
Soutien technique & logistique : Manuel Goepfert
Assistance : Marc-Olivier Méhu




SOURCES & CREDITS :

   NOAA